Time;durP1;ratioP1;P1;durP2;ratioP2;P2;SDS_P1;SDS_P2;PMS_P1;PMS_P2;Temp;Humidity;BMP_temperature;BMP_pressure;BME280_temperature;BME280_humidity;BME280_pressure;Samples;Min_cycle;Max_cycle;Signal;HPM_P1;HPM_P2
2022/04/01 00:02:05;;;;;;;23.85;11.18;;;;;;;;;;5007718;28;20018;-86
2022/04/01 00:04:30;;;;;;;21.35;11.48;;;;;;;;;;5005451;28;20033;-85
2022/04/01 00:06:56;;;;;;;24.08;11.48;;;;;;;;;;5004478;28;20033;-85
2022/04/01 00:09:22;;;;;;;26.88;12.65;;;;;;;;;;5005215;28;20057;-85
2022/04/01 00:11:47;;;;;;;24.55;12.32;;;;;;;;;;5003019;28;20108;-85
2022/04/01 00:14:13;;;;;;;24.85;12.73;;;;;;;;;;4988769;28;20140;-84
2022/04/01 00:16:38;;;;;;;26.77;12.15;;;;;;;;;;5004929;28;20070;-86
2022/04/01 00:19:05;;;;;;;20.92;11.93;;;;;;;;;;5008492;28;20026;-85
2022/04/01 00:21:30;;;;;;;27.65;13.60;;;;;;;;;;5005103;28;20403;-83
2022/04/01 00:23:55;;;;;;;28.92;12.98;;;;;;;;;;5004953;28;20026;-84
2022/04/01 00:26:21;;;;;;;20.98;11.13;;;;;;;;;;5014550;23;20054;-83
2022/04/01 00:28:46;;;;;;;20.42;11.60;;;;;;;;;;5004690;28;20034;-83
2022/04/01 00:31:12;;;;;;;22.73;11.95;;;;;;;;;;5005258;28;20109;-85
2022/04/01 00:33:37;;;;;;;20.67;10.55;;;;;;;;;;5002876;28;20081;-83
2022/04/01 00:36:02;;;;;;;21.73;10.57;;;;;;;;;;4979070;28;20096;-83
2022/04/01 00:38:28;;;;;;;17.10;10.00;;;;;;;;;;5016196;28;20045;-83
2022/04/01 00:40:54;;;;;;;22.23;12.25;;;;;;;;;;5011461;28;20018;-80
2022/04/01 00:43:30;;;;;;;19.95;10.52;;;;;;;;;;5013388;28;20049;-83
2022/04/01 00:45:57;;;;;;;20.20;10.40;;;;;;;;;;5016253;28;20042;-82
2022/04/01 00:48:23;;;;;;;19.75;10.23;;;;;;;;;;4992650;28;20030;-82
2022/04/01 00:50:48;;;;;;;17.45;8.77;;;;;;;;;;5005111;28;20022;-83
2022/04/01 00:53:14;;;;;;;25.65;11.00;;;;;;;;;;5006656;28;20029;-84
2022/04/01 00:55:40;;;;;;;22.98;11.35;;;;;;;;;;5015298;28;20381;-83
2022/04/01 00:58:09;;;;;;;17.25;9.20;;;;;;;;;;5014059;28;20022;-84
2022/04/01 01:00:36;;;;;;;19.73;10.02;;;;;;;;;;4989570;28;20030;-84
2022/04/01 01:03:01;;;;;;;20.70;10.25;;;;;;;;;;4985050;28;20053;-84
2022/04/01 01:05:27;;;;;;;20.98;10.07;;;;;;;;;;4998208;28;20041;-82
2022/04/01 01:07:52;;;;;;;15.10;8.35;;;;;;;;;;4995388;28;20027;-85
2022/04/01 01:10:19;;;;;;;17.58;9.65;;;;;;;;;;5001053;28;20036;-83
2022/04/01 01:12:45;;;;;;;20.50;10.50;;;;;;;;;;5007240;28;20042;-83
2022/04/01 01:15:13;;;;;;;21.30;10.48;;;;;;;;;;4983385;28;20022;-83
2022/04/01 01:17:39;;;;;;;18.35;8.57;;;;;;;;;;5004022;28;20026;-82
2022/04/01 01:20:12;;;;;;;20.23;10.73;;;;;;;;;;5001355;28;20029;-82
2022/04/01 01:22:42;;;;;;;20.13;10.05;;;;;;;;;;4987109;28;20034;-82
2022/04/01 01:25:08;;;;;;;21.92;11.25;;;;;;;;;;5012710;28;20068;-82
2022/04/01 01:27:34;;;;;;;21.95;11.10;;;;;;;;;;4985621;28;20045;-83
2022/04/01 01:30:02;;;;;;;26.08;11.02;;;;;;;;;;5003962;28;20034;-85
2022/04/01 01:32:29;;;;;;;18.98;10.25;;;;;;;;;;5001550;28;20086;-82
2022/04/01 01:34:55;;;;;;;20.25;11.13;;;;;;;;;;4987093;28;20066;-84
2022/04/01 01:37:20;;;;;;;22.45;12.10;;;;;;;;;;5009278;28;20069;-83
2022/04/01 01:39:46;;;;;;;20.98;11.15;;;;;;;;;;5009168;28;20520;-83
2022/04/01 01:42:11;;;;;;;24.52;11.38;;;;;;;;;;4994142;28;20022;-83
2022/04/01 01:44:36;;;;;;;19.73;10.55;;;;;;;;;;5007750;28;20056;-84
2022/04/01 01:47:02;;;;;;;20.95;10.43;;;;;;;;;;5010795;28;20022;-81
2022/04/01 01:49:28;;;;;;;19.25;10.13;;;;;;;;;;4993758;28;20118;-82
2022/04/01 01:54:49;;;;;;;20.40;11.07;;;;;;;;;;5008347;28;20044;-82
2022/04/01 01:57:22;;;;;;;22.27;11.65;;;;;;;;;;5000758;28;20417;-83
2022/04/01 01:59:48;;;;;;;22.85;10.75;;;;;;;;;;5010107;28;20089;-83
2022/04/01 02:02:14;;;;;;;19.38;9.50;;;;;;;;;;5000745;28;20082;-84
2022/04/01 02:04:41;;;;;;;20.45;10.48;;;;;;;;;;4993756;28;20042;-82
2022/04/01 02:07:07;;;;;;;21.67;10.05;;;;;;;;;;5005682;28;20113;-81
2022/04/01 02:09:33;;;;;;;19.88;10.52;;;;;;;;;;5005056;28;20037;-80
2022/04/01 02:11:59;;;;;;;18.85;10.25;;;;;;;;;;5014239;28;20044;-77
2022/04/01 02:14:25;;;;;;;22.48;11.43;;;;;;;;;;5027415;28;20030;-78
2022/04/01 02:16:51;;;;;;;22.92;11.55;;;;;;;;;;5023194;28;20019;-78
2022/04/01 02:19:21;;;;;;;27.38;11.63;;;;;;;;;;5020327;28;20038;-78
2022/04/01 02:21:55;;;;;;;27.05;12.38;;;;;;;;;;5013267;28;20018;-80
2022/04/01 02:24:23;;;;;;;24.30;12.05;;;;;;;;;;5000976;28;20054;-79
2022/04/01 02:26:49;;;;;;;19.92;10.23;;;;;;;;;;5008806;28;20054;-81
2022/04/01 02:29:18;;;;;;;24.33;12.07;;;;;;;;;;5015377;28;20025;-81
2022/04/01 02:31:44;;;;;;;22.42;11.70;;;;;;;;;;4990266;28;20026;-80
2022/04/01 02:34:10;;;;;;;21.83;11.10;;;;;;;;;;4984485;28;20041;-82
2022/04/01 02:36:35;;;;;;;20.40;11.02;;;;;;;;;;4986590;28;20509;-83
2022/04/01 02:39:01;;;;;;;20.27;10.48;;;;;;;;;;4969828;28;20058;-80
2022/04/01 02:41:26;;;;;;;17.42;9.45;;;;;;;;;;4998611;28;20035;-80
2022/04/01 02:44:08;;;;;;;17.92;9.52;;;;;;;;;;5005993;28;20102;-79
2022/04/01 02:46:34;;;;;;;17.75;9.40;;;;;;;;;;5011611;28;20026;-80
2022/04/01 02:49:00;;;;;;;18.42;9.35;;;;;;;;;;5002142;28;20405;-81
2022/04/01 02:51:26;;;;;;;16.55;9.63;;;;;;;;;;4996734;28;20022;-81
2022/04/01 02:53:52;;;;;;;18.60;9.95;;;;;;;;;;4999994;28;20388;-81
2022/04/01 02:56:17;;;;;;;19.70;10.85;;;;;;;;;;5004555;28;20026;-81
2022/04/01 02:58:42;;;;;;;21.00;10.35;;;;;;;;;;5012292;28;20116;-82
2022/04/01 03:01:08;;;;;;;17.52;10.35;;;;;;;;;;4998194;28;20109;-81
2022/04/01 03:03:34;;;;;;;21.75;10.77;;;;;;;;;;4989252;28;20058;-81
2022/04/01 03:05:59;;;;;;;17.13;9.38;;;;;;;;;;4996635;28;20054;-81
2022/04/01 03:08:26;;;;;;;18.83;10.40;;;;;;;;;;4992067;28;20436;-81
2022/04/01 03:10:52;;;;;;;24.55;9.80;;;;;;;;;;5017809;28;20022;-80
2022/04/01 03:13:17;;;;;;;19.65;9.40;;;;;;;;;;5006975;28;20065;-80
2022/04/01 03:15:43;;;;;;;18.23;8.73;;;;;;;;;;4996962;28;20038;-81
2022/04/01 03:18:09;;;;;;;17.80;10.27;;;;;;;;;;5012004;28;20066;-81
2022/04/01 03:20:35;;;;;;;17.45;9.55;;;;;;;;;;5001785;28;20078;-80
2022/04/01 03:23:01;;;;;;;18.70;10.23;;;;;;;;;;5012772;28;20503;-81
2022/04/01 03:25:32;;;;;;;20.10;10.48;;;;;;;;;;5025161;28;20034;-81
2022/04/01 03:27:58;;;;;;;22.63;10.93;;;;;;;;;;5013931;28;20066;-82
2022/04/01 03:30:23;;;;;;;23.52;11.70;;;;;;;;;;5009808;28;20034;-81
2022/04/01 03:32:49;;;;;;;18.50;10.10;;;;;;;;;;4987000;28;20030;-82
2022/04/01 03:35:16;;;;;;;19.67;11.15;;;;;;;;;;5006976;28;20026;-82
2022/04/01 03:37:42;;;;;;;23.88;11.15;;;;;;;;;;5017493;28;20033;-81
2022/04/01 03:40:08;;;;;;;23.50;11.75;;;;;;;;;;5004469;28;20045;-82
2022/04/01 03:42:34;;;;;;;19.23;10.60;;;;;;;;;;4990808;28;20112;-81
2022/04/01 03:45:04;;;;;;;23.05;11.95;;;;;;;;;;4986229;28;20046;-81
2022/04/01 03:47:40;;;;;;;24.90;12.00;;;;;;;;;;5007616;28;20026;-81
2022/04/01 03:50:09;;;;;;;25.55;12.27;;;;;;;;;;5003798;28;20089;-83
2022/04/01 03:52:35;;;;;;;23.95;12.82;;;;;;;;;;5004977;28;20026;-82
2022/04/01 03:55:06;;;;;;;24.80;13.10;;;;;;;;;;4988704;28;20110;-82
2022/04/01 03:57:37;;;;;;;27.50;12.23;;;;;;;;;;4989881;28;20030;-83
2022/04/01 04:00:07;;;;;;;24.85;13.05;;;;;;;;;;5020044;28;20041;-82
2022/04/01 04:02:34;;;;;;;22.63;11.95;;;;;;;;;;4971525;28;20031;-82
2022/04/01 04:05:00;;;;;;;23.52;11.90;;;;;;;;;;4988945;28;20030;-82
2022/04/01 04:07:26;;;;;;;24.95;11.90;;;;;;;;;;4975199;28;20061;-83
2022/04/01 04:09:52;;;;;;;26.23;12.02;;;;;;;;;;5006586;28;20026;-83
2022/04/01 04:12:19;;;;;;;24.88;12.45;;;;;;;;;;5003540;28;20040;-83
2022/04/01 04:14:51;;;;;;;21.50;12.20;;;;;;;;;;5003015;28;20034;-83
2022/04/01 04:17:24;;;;;;;19.77;10.52;;;;;;;;;;4988987;28;20022;-83
2022/04/01 04:20:02;;;;;;;23.42;11.18;;;;;;;;;;5009887;28;20492;-83
2022/04/01 04:23:01;;;;;;;21.30;11.25;;;;;;;;;;4994376;28;20547;-84
2022/04/01 04:25:34;;;;;;;20.65;11.13;;;;;;;;;;4976749;28;20045;-84
2022/04/01 04:28:00;;;;;;;20.40;10.45;;;;;;;;;;5016620;28;20030;-84
2022/04/01 04:30:35;;;;;;;19.45;11.20;;;;;;;;;;5011109;28;20078;-81
2022/04/01 04:33:06;;;;;;;18.75;10.68;;;;;;;;;;5012684;28;20032;-80
2022/04/01 04:35:36;;;;;;;20.73;10.13;;;;;;;;;;5014921;28;20061;-81
2022/04/01 04:38:02;;;;;;;16.40;9.70;;;;;;;;;;5003011;28;20094;-80
2022/04/01 04:40:28;;;;;;;17.05;9.68;;;;;;;;;;5003306;28;20030;-80
2022/04/01 04:42:54;;;;;;;20.10;10.75;;;;;;;;;;4997607;28;20054;-82
2022/04/01 04:45:22;;;;;;;19.73;10.95;;;;;;;;;;4999788;28;20088;-80
2022/04/01 04:47:48;;;;;;;26.02;10.77;;;;;;;;;;5017664;28;20029;-81
2022/04/01 04:50:19;;;;;;;19.40;10.75;;;;;;;;;;4991402;28;20057;-81
2022/04/01 04:52:55;;;;;;;20.92;11.23;;;;;;;;;;5010743;28;20034;-81
2022/04/01 04:55:22;;;;;;;17.88;9.20;;;;;;;;;;5005975;28;20036;-80
2022/04/01 04:57:49;;;;;;;14.77;9.05;;;;;;;;;;4989421;28;20034;-81
2022/04/01 05:00:19;;;;;;;18.17;9.35;;;;;;;;;;5010063;28;20472;-80
2022/04/01 05:03:10;;;;;;;15.63;8.70;;;;;;;;;;4992895;28;20497;-80
2022/04/01 05:05:41;;;;;;;16.70;8.02;;;;;;;;;;4998775;28;20040;-81
2022/04/01 05:08:21;;;;;;;15.10;7.35;;;;;;;;;;5010924;28;20030;-81
2022/04/01 05:11:16;;;;;;;16.05;8.18;;;;;;;;;;4990547;28;20034;-81
2022/04/01 05:13:58;;;;;;;14.63;8.57;;;;;;;;;;5003710;28;20026;-80
2022/04/01 05:16:35;;;;;;;14.15;8.90;;;;;;;;;;5019638;28;20057;-79
2022/04/01 05:19:08;;;;;;;16.23;9.48;;;;;;;;;;5017452;28;20030;-81
2022/04/01 05:22:09;;;;;;;14.52;7.78;;;;;;;;;;5000783;28;20030;-83
2022/04/01 05:24:47;;;;;;;11.80;7.07;;;;;;;;;;5016655;28;20042;-81
2022/04/01 05:27:23;;;;;;;13.93;8.23;;;;;;;;;;5006853;28;20034;-82
2022/04/01 05:30:16;;;;;;;11.77;7.35;;;;;;;;;;4993074;28;20041;-83
2022/04/01 05:33:06;;;;;;;14.18;8.48;;;;;;;;;;5010674;28;20022;-86
2022/04/01 05:35:40;;;;;;;15.30;9.32;;;;;;;;;;4994792;28;20396;-82
2022/04/01 05:38:07;;;;;;;14.52;8.85;;;;;;;;;;4995202;28;20041;-82
2022/04/01 05:40:34;;;;;;;16.98;9.02;;;;;;;;;;5000261;28;20432;-82
2022/04/01 05:43:00;;;;;;;14.35;7.65;;;;;;;;;;5002586;28;20057;-83
2022/04/01 05:45:28;;;;;;;11.07;6.57;;;;;;;;;;4999665;28;20086;-82
2022/04/01 05:47:55;;;;;;;12.88;6.97;;;;;;;;;;5005508;28;20023;-84
2022/04/01 05:50:22;;;;;;;11.60;6.78;;;;;;;;;;4998771;28;20031;-84
2022/04/01 05:52:49;;;;;;;11.25;5.97;;;;;;;;;;4990238;28;20042;-84
2022/04/01 05:55:16;;;;;;;10.55;6.07;;;;;;;;;;4983527;28;20041;-86
2022/04/01 05:57:42;;;;;;;11.68;6.93;;;;;;;;;;5012343;28;20026;-85
2022/04/01 06:00:12;;;;;;;12.50;7.50;;;;;;;;;;5000162;28;20022;-84
2022/04/01 06:02:49;;;;;;;15.45;7.97;;;;;;;;;;5000750;28;20034;-84
2022/04/01 06:05:23;;;;;;;13.27;7.68;;;;;;;;;;4997064;28;20094;-84
2022/04/01 06:08:06;;;;;;;13.98;7.20;;;;;;;;;;4995285;28;20030;-85
2022/04/01 06:10:52;;;;;;;10.70;7.05;;;;;;;;;;4997050;28;20054;-84
2022/04/01 06:13:28;;;;;;;11.73;7.50;;;;;;;;;;5002935;28;20025;-83
2022/04/01 06:16:16;;;;;;;17.67;8.02;;;;;;;;;;5019610;28;20026;-84
2022/04/01 06:18:47;;;;;;;12.20;6.80;;;;;;;;;;5006576;28;20105;-83
2022/04/01 06:21:21;;;;;;;14.48;7.10;;;;;;;;;;5005209;28;20022;-83
2022/04/01 06:24:05;;;;;;;11.52;5.75;;;;;;;;;;4998993;28;20038;-83
2022/04/01 06:26:38;;;;;;;7.75;5.25;;;;;;;;;;5007538;28;20038;-83
2022/04/01 06:29:15;;;;;;;7.50;4.07;;;;;;;;;;5022404;28;20022;-83
2022/04/01 06:31:47;;;;;;;8.20;5.38;;;;;;;;;;5013864;28;20097;-82
2022/04/01 06:34:23;;;;;;;8.48;5.40;;;;;;;;;;5010610;28;20050;-83
2022/04/01 06:36:57;;;;;;;8.77;5.93;;;;;;;;;;4993621;28;20057;-83
2022/04/01 06:39:43;;;;;;;12.50;6.45;;;;;;;;;;5016173;28;20048;-83
2022/04/01 06:42:13;;;;;;;8.00;5.47;;;;;;;;;;5029956;28;20024;-83
2022/04/01 06:44:38;;;;;;;11.45;6.55;;;;;;;;;;5033711;28;20014;-83
2022/04/01 06:47:04;;;;;;;10.82;6.32;;;;;;;;;;5028755;28;20460;-84
2022/04/01 06:49:29;;;;;;;8.68;5.43;;;;;;;;;;5018702;28;20037;-84
2022/04/01 06:51:55;;;;;;;9.30;5.65;;;;;;;;;;5008993;28;20050;-85
2022/04/01 06:54:20;;;;;;;14.23;6.07;;;;;;;;;;5006660;28;20408;-85
2022/04/01 06:56:45;;;;;;;9.50;5.63;;;;;;;;;;5003594;28;20033;-84
2022/04/01 06:59:11;;;;;;;11.30;5.95;;;;;;;;;;5023233;28;20061;-85
2022/04/01 07:01:39;;;;;;;9.40;5.43;;;;;;;;;;5010156;28;20030;-85
2022/04/01 07:04:04;;;;;;;11.02;6.32;;;;;;;;;;5012074;28;20036;-85
2022/04/01 07:06:31;;;;;;;10.85;5.90;;;;;;;;;;4997422;28;20464;-82
2022/04/01 07:08:57;;;;;;;10.20;6.03;;;;;;;;;;5020787;28;20017;-82
2022/04/01 07:11:22;;;;;;;10.68;6.45;;;;;;;;;;5012451;28;20532;-84
2022/04/01 07:13:47;;;;;;;12.77;6.53;;;;;;;;;;5020780;28;20057;-84
2022/04/01 07:16:14;;;;;;;13.18;6.95;;;;;;;;;;5020092;28;20081;-87
2022/04/01 07:18:39;;;;;;;35.25;15.60;;;;;;;;;;5001826;28;20026;-86
2022/04/01 07:21:20;;;;;;;36.33;16.45;;;;;;;;;;4993767;28;20088;-85
2022/04/01 07:24:05;;;;;;;23.23;10.60;;;;;;;;;;5005240;28;20056;-88
2022/04/01 07:26:31;;;;;;;26.25;12.63;;;;;;;;;;4996313;28;20065;-85
2022/04/01 07:28:56;;;;;;;18.55;10.50;;;;;;;;;;5009473;28;20033;-85
2022/04/01 07:34:08;;;;;;;22.08;10.38;;;;;;;;;;5001175;28;20036;-85
2022/04/01 07:36:33;;;;;;;19.48;10.95;;;;;;;;;;4991952;28;20113;-86
2022/04/01 07:39:26;;;;;;;18.65;10.77;;;;;;;;;;5012702;28;20046;-84
2022/04/01 07:41:52;;;;;;;18.05;10.25;;;;;;;;;;4977036;28;20049;-87
2022/04/01 07:44:17;;;;;;;26.90;12.88;;;;;;;;;;4996903;28;20033;-85
2022/04/01 07:46:42;;;;;;;24.33;12.82;;;;;;;;;;5014490;28;20034;-86
2022/04/01 07:49:08;;;;;;;20.42;11.38;;;;;;;;;;5019173;28;20038;-84
2022/04/01 07:51:33;;;;;;;19.88;10.10;;;;;;;;;;5009525;28;20034;-86
2022/04/01 07:53:59;;;;;;;20.25;10.55;;;;;;;;;;4983147;28;20033;-86
2022/04/01 07:56:30;;;;;;;21.75;11.13;;;;;;;;;;5002333;28;20038;-83
2022/04/01 07:58:59;;;;;;;19.27;11.38;;;;;;;;;;5011999;28;20022;-84
2022/04/01 08:01:25;;;;;;;21.70;11.88;;;;;;;;;;5006397;28;20562;-83
2022/04/01 08:03:50;;;;;;;24.92;12.25;;;;;;;;;;5001672;28;20042;-84
2022/04/01 08:06:16;;;;;;;24.10;12.73;;;;;;;;;;5011389;28;20053;-84
2022/04/01 08:08:41;;;;;;;24.15;12.77;;;;;;;;;;5021694;28;20388;-83
2022/04/01 08:11:07;;;;;;;20.33;11.40;;;;;;;;;;5012762;28;20357;-84
2022/04/01 08:13:33;;;;;;;26.70;13.73;;;;;;;;;;5009906;28;20030;-83
2022/04/01 08:15:59;;;;;;;23.13;12.82;;;;;;;;;;5001888;28;20026;-84
2022/04/01 08:18:24;;;;;;;20.38;11.02;;;;;;;;;;5012268;28;20084;-84
2022/04/01 08:20:50;;;;;;;21.45;11.00;;;;;;;;;;5009950;28;20033;-86
2022/04/01 08:23:16;;;;;;;22.92;12.63;;;;;;;;;;5002400;28;20021;-84
2022/04/01 08:25:41;;;;;;;19.05;11.57;;;;;;;;;;4989206;28;20452;-85
2022/04/01 08:28:08;;;;;;;23.00;11.95;;;;;;;;;;4988513;28;20022;-87
2022/04/01 08:30:34;;;;;;;22.55;12.15;;;;;;;;;;4981042;28;20018;-87
2022/04/01 08:33:00;;;;;;;26.00;11.65;;;;;;;;;;4999120;28;20034;-86
2022/04/01 08:35:25;;;;;;;20.85;10.07;;;;;;;;;;4980105;28;20028;-86
2022/04/01 08:37:53;;;;;;;22.60;10.95;;;;;;;;;;4993043;28;20034;-86
2022/04/01 08:40:18;;;;;;;22.80;11.45;;;;;;;;;;4989794;28;20048;-84
2022/04/01 08:42:46;;;;;;;15.98;8.30;;;;;;;;;;4985699;28;20026;-86
2022/04/01 08:45:12;;;;;;;17.33;8.65;;;;;;;;;;4980241;28;20026;-86
2022/04/01 08:47:38;;;;;;;18.00;9.35;;;;;;;;;;4988219;28;20038;-84
2022/04/01 08:50:04;;;;;;;21.05;9.88;;;;;;;;;;5012003;28;20034;-85
2022/04/01 08:52:30;;;;;;;18.35;10.57;;;;;;;;;;4982417;28;20054;-83
2022/04/01 08:55:01;;;;;;;18.33;9.15;;;;;;;;;;4982262;28;20127;-83
2022/04/01 08:57:33;;;;;;;16.10;8.82;;;;;;;;;;5018533;28;20021;-83
2022/04/01 09:00:00;;;;;;;19.30;11.23;;;;;;;;;;5015582;28;20064;-84
2022/04/01 09:02:26;;;;;;;22.35;11.48;;;;;;;;;;4990295;28;20030;-83
2022/04/01 09:05:06;;;;;;;19.48;10.30;;;;;;;;;;4978903;28;20393;-83
2022/04/01 09:07:31;;;;;;;20.65;10.57;;;;;;;;;;4979259;28;20026;-84
2022/04/01 09:10:03;;;;;;;20.20;10.32;;;;;;;;;;4982784;28;20081;-84
2022/04/01 09:12:29;;;;;;;19.30;11.45;;;;;;;;;;4981867;28;20026;-83
2022/04/01 09:14:55;;;;;;;22.27;11.98;;;;;;;;;;5017876;28;20086;-84
2022/04/01 09:17:22;;;;;;;17.23;9.55;;;;;;;;;;4998218;28;20030;-84
2022/04/01 09:19:47;;;;;;;15.63;7.97;;;;;;;;;;5012684;28;20109;-84
2022/04/01 09:22:16;;;;;;;20.17;11.32;;;;;;;;;;5000832;28;20086;-84
2022/04/01 09:24:57;;;;;;;20.00;9.48;;;;;;;;;;5019131;28;20026;-83
2022/04/01 09:27:39;;;;;;;17.50;9.30;;;;;;;;;;4996884;28;20225;-84
2022/04/01 09:30:06;;;;;;;13.55;7.82;;;;;;;;;;5002819;28;20153;-84
2022/04/01 09:32:45;;;;;;;14.20;7.82;;;;;;;;;;4990183;28;20025;-85
2022/04/01 09:35:12;;;;;;;13.25;7.80;;;;;;;;;;4999884;28;20034;-85
2022/04/01 09:37:39;;;;;;;16.52;8.85;;;;;;;;;;4990343;28;20029;-86
2022/04/01 09:40:06;;;;;;;13.52;7.80;;;;;;;;;;5007899;28;20022;-86
2022/04/01 09:42:31;;;;;;;12.77;7.50;;;;;;;;;;4998486;28;20109;-86
2022/04/01 09:44:58;;;;;;;13.43;8.02;;;;;;;;;;5008659;28;20057;-86
2022/04/01 09:47:24;;;;;;;14.52;7.90;;;;;;;;;;5000496;28;20029;-85
2022/04/01 09:49:52;;;;;;;15.77;8.25;;;;;;;;;;4989302;28;20549;-86
2022/04/01 09:52:20;;;;;;;12.75;7.53;;;;;;;;;;5007321;28;20018;-83
2022/04/01 09:54:53;;;;;;;10.73;6.13;;;;;;;;;;5002724;28;20053;-86
2022/04/01 09:57:21;;;;;;;10.48;6.68;;;;;;;;;;4990696;28;20026;-83
2022/04/01 09:59:48;;;;;;;9.80;5.25;;;;;;;;;;5004722;28;20109;-83
2022/04/01 10:02:14;;;;;;;8.43;4.75;;;;;;;;;;5010361;28;20419;-83
2022/04/01 10:04:40;;;;;;;10.23;4.72;;;;;;;;;;5016218;28;20089;-83
2022/04/01 10:07:05;;;;;;;8.63;5.22;;;;;;;;;;5015535;28;20101;-83
2022/04/01 10:09:31;;;;;;;8.35;4.70;;;;;;;;;;4998506;28;20519;-83
2022/04/01 10:12:01;;;;;;;8.77;5.00;;;;;;;;;;4986827;28;20022;-83
2022/04/01 10:14:27;;;;;;;5.88;4.28;;;;;;;;;;4995703;28;20033;-83
2022/04/01 10:16:55;;;;;;;6.43;5.03;;;;;;;;;;5014463;28;20026;-83
2022/04/01 10:19:29;;;;;;;6.45;4.00;;;;;;;;;;5002611;28;20035;-85
2022/04/01 10:21:55;;;;;;;6.05;3.92;;;;;;;;;;4989230;28;20030;-86
2022/04/01 10:24:47;;;;;;;8.43;4.60;;;;;;;;;;4989679;28;20076;-85
2022/04/01 10:27:23;;;;;;;7.13;4.45;;;;;;;;;;5005323;28;20089;-84
2022/04/01 10:29:49;;;;;;;6.45;3.95;;;;;;;;;;5015488;28;20034;-83
2022/04/01 10:32:36;;;;;;;6.65;4.45;;;;;;;;;;5019813;28;20113;-85
2022/04/01 10:35:04;;;;;;;7.07;4.57;;;;;;;;;;5018770;28;20384;-84
2022/04/01 10:37:31;;;;;;;4.47;3.47;;;;;;;;;;5001978;28;20026;-85
2022/04/01 10:39:58;;;;;;;7.07;4.10;;;;;;;;;;5016228;28;20022;-83
2022/04/01 10:42:45;;;;;;;7.68;4.57;;;;;;;;;;4999483;28;20543;-84
2022/04/01 10:45:17;;;;;;;4.75;3.80;;;;;;;;;;4980931;28;20409;-83
2022/04/01 10:53:32;;;;;;;9.35;4.45;;;;;;;;;;4993139;28;20033;-84
2022/04/01 10:56:29;;;;;;;7.40;4.72;;;;;;;;;;4999917;28;20032;-84
2022/04/01 10:59:12;;;;;;;7.20;4.38;;;;;;;;;;4988803;28;20026;-84
2022/04/01 11:01:53;;;;;;;8.57;4.70;;;;;;;;;;5000095;28;20105;-84
2022/04/01 11:04:18;;;;;;;6.03;4.05;;;;;;;;;;4987735;28;20037;-83
2022/04/01 11:07:00;;;;;;;6.47;4.25;;;;;;;;;;4987975;28;20026;-85
2022/04/01 11:09:51;;;;;;;5.20;3.85;;;;;;;;;;4988074;28;20033;-87
2022/04/01 11:12:20;;;;;;;5.97;4.45;;;;;;;;;;4984172;28;20094;-85
2022/04/01 11:15:07;;;;;;;6.30;4.32;;;;;;;;;;5017302;28;20026;-84
2022/04/01 11:17:41;;;;;;;5.28;4.45;;;;;;;;;;5021467;28;20018;-85
2022/04/01 11:20:10;;;;;;;5.30;4.15;;;;;;;;;;5001049;28;20038;-84
2022/04/01 11:22:39;;;;;;;6.20;4.38;;;;;;;;;;4987516;28;20046;-84
2022/04/01 11:25:12;;;;;;;6.43;4.75;;;;;;;;;;5012214;28;20018;-84
2022/04/01 11:27:48;;;;;;;6.25;4.28;;;;;;;;;;5009438;28;20022;-87
2022/04/01 11:34:24;;;;;;;7.35;5.03;;;;;;;;;;5014006;28;20423;-83
2022/04/01 11:43:55;;;;;;;8.48;5.28;;;;;;;;;;4963982;29;20062;-84
2022/04/01 11:50:45;;;;;;;7.25;5.45;;;;;;;;;;4993220;28;20069;-88
2022/04/01 11:54:17;;;;;;;8.90;5.82;;;;;;;;;;4939762;29;20039;-88
2022/04/01 11:57:15;;;;;;;7.13;5.35;;;;;;;;;;4964007;28;20030;-87
2022/04/01 12:00:09;;;;;;;8.25;6.03;;;;;;;;;;4958527;28;20461;-86
2022/04/01 15:24:52;;;;;;;16.65;10.75;;;;;;;;;;5012661;23;20057;-84
2022/04/01 15:27:23;;;;;;;17.15;10.05;;;;;;;;;;4982640;28;20121;-83
2022/04/01 15:29:48;;;;;;;17.90;11.10;;;;;;;;;;4997538;28;20455;-83
2022/04/01 15:32:14;;;;;;;15.32;10.95;;;;;;;;;;5008236;28;20026;-83
2022/04/01 15:34:40;;;;;;;19.35;10.85;;;;;;;;;;4999584;28;20032;-82
2022/04/01 15:37:08;;;;;;;14.65;8.50;;;;;;;;;;5000080;28;20420;-83
2022/04/01 15:39:37;;;;;;;18.75;10.40;;;;;;;;;;5017643;28;20089;-84
2022/04/01 15:42:06;;;;;;;15.15;10.27;;;;;;;;;;4992657;28;20034;-83
2022/04/01 15:44:32;;;;;;;15.65;9.52;;;;;;;;;;5007540;28;20030;-85
2022/04/01 15:46:58;;;;;;;15.98;10.43;;;;;;;;;;4995180;28;20400;-85
2022/04/01 15:49:24;;;;;;;16.80;9.93;;;;;;;;;;5019212;28;20030;-85
2022/04/01 15:51:50;;;;;;;11.43;7.47;;;;;;;;;;4985988;28;20030;-85
2022/04/01 15:54:16;;;;;;;17.80;10.57;;;;;;;;;;4985470;28;20038;-85
2022/04/01 15:56:43;;;;;;;16.38;8.55;;;;;;;;;;4987200;28;20101;-83
2022/04/01 15:59:08;;;;;;;15.48;8.77;;;;;;;;;;5004039;28;20077;-83
2022/04/01 16:01:38;;;;;;;18.80;11.13;;;;;;;;;;5003584;28;20427;-84
2022/04/01 16:04:12;;;;;;;14.32;7.55;;;;;;;;;;5003077;28;20511;-84
2022/04/01 16:06:40;;;;;;;17.83;11.43;;;;;;;;;;5002196;28;20038;-82
2022/04/01 16:09:06;;;;;;;20.02;11.27;;;;;;;;;;4994084;28;20033;-83
2022/04/01 16:11:35;;;;;;;22.00;11.77;;;;;;;;;;5016610;28;20057;-82
2022/04/01 16:14:07;;;;;;;23.08;12.60;;;;;;;;;;4995401;28;20032;-84
2022/04/01 16:16:34;;;;;;;16.50;10.05;;;;;;;;;;4999799;28;20408;-83
2022/04/01 16:19:05;;;;;;;20.10;12.18;;;;;;;;;;5001977;28;20031;-81
2022/04/01 16:21:31;;;;;;;20.67;11.70;;;;;;;;;;5001611;28;20030;-83
2022/04/01 16:23:59;;;;;;;20.95;12.63;;;;;;;;;;4999324;28;20056;-81
2022/04/01 16:26:25;;;;;;;22.88;11.25;;;;;;;;;;4997621;28;20046;-82
2022/04/01 16:28:50;;;;;;;18.45;10.68;;;;;;;;;;4999803;28;20362;-81
2022/04/01 16:31:16;;;;;;;16.38;10.93;;;;;;;;;;5000899;28;20053;-82
2022/04/01 16:33:42;;;;;;;22.25;13.45;;;;;;;;;;5002871;28;20503;-83
2022/04/01 16:36:07;;;;;;;19.30;11.63;;;;;;;;;;5002225;28;20104;-82
2022/04/01 16:38:32;;;;;;;21.27;12.63;;;;;;;;;;4987494;28;20038;-83
2022/04/01 16:40:58;;;;;;;17.83;9.95;;;;;;;;;;5011257;28;20068;-82
2022/04/01 16:43:23;;;;;;;20.63;12.35;;;;;;;;;;4991348;28;20081;-85
2022/04/01 16:45:49;;;;;;;20.05;11.70;;;;;;;;;;5004426;28;20076;-85
2022/04/01 16:48:14;;;;;;;20.63;12.05;;;;;;;;;;4992714;28;20021;-82
2022/04/01 16:50:40;;;;;;;20.25;11.80;;;;;;;;;;5012243;28;20074;-81
2022/04/01 16:53:05;;;;;;;22.88;12.95;;;;;;;;;;5006037;28;20041;-81
2022/04/01 16:55:31;;;;;;;22.90;12.88;;;;;;;;;;5006223;28;20104;-83
2022/04/01 16:57:56;;;;;;;21.60;10.85;;;;;;;;;;5005719;28;20046;-80
2022/04/01 17:00:22;;;;;;;19.80;12.05;;;;;;;;;;5007039;28;20030;-81
2022/04/01 17:02:47;;;;;;;19.75;11.80;;;;;;;;;;5005790;28;20046;-83
2022/04/01 17:05:13;;;;;;;14.57;9.75;;;;;;;;;;4988136;28;20037;-82
2022/04/01 17:13:18;;;;;;;21.07;11.67;;;;;;;;;;5010435;28;20037;-83
2022/04/01 17:15:46;;;;;;;17.00;10.18;;;;;;;;;;5009969;28;20065;-82
2022/04/01 17:18:12;;;;;;;16.90;10.43;;;;;;;;;;5013064;28;20021;-84
2022/04/01 17:20:42;;;;;;;18.83;10.90;;;;;;;;;;5017110;28;20395;-83
2022/04/01 17:23:11;;;;;;;19.20;11.70;;;;;;;;;;5002877;28;20026;-82
2022/04/01 17:25:39;;;;;;;17.65;10.57;;;;;;;;;;5005921;28;20034;-83
2022/04/01 17:28:08;;;;;;;20.80;13.18;;;;;;;;;;5004883;28;20041;-81
2022/04/01 17:30:35;;;;;;;19.95;12.38;;;;;;;;;;4987750;28;20094;-81
2022/04/01 17:33:05;;;;;;;18.58;11.52;;;;;;;;;;5004674;28;20026;-80
2022/04/01 17:35:36;;;;;;;16.17;10.80;;;;;;;;;;5000697;28;20058;-81
2022/04/01 17:38:08;;;;;;;17.55;10.60;;;;;;;;;;4996616;28;20022;-83
2022/04/01 17:40:33;;;;;;;21.15;12.48;;;;;;;;;;4999093;28;20029;-81
2022/04/01 17:42:59;;;;;;;19.40;12.35;;;;;;;;;;5005074;28;20084;-81
2022/04/01 17:45:27;;;;;;;20.65;12.73;;;;;;;;;;5003937;28;20107;-81
2022/04/01 17:48:08;;;;;;;12.10;7.55;;;;;;;;;;5001508;28;20168;-81
2022/04/01 17:50:36;;;;;;;18.40;12.40;;;;;;;;;;5003779;28;20049;-81
2022/04/01 17:53:02;;;;;;;16.60;10.35;;;;;;;;;;5004091;28;20015;-82
2022/04/01 17:55:28;;;;;;;15.48;8.05;;;;;;;;;;5003811;28;20026;-80
2022/04/01 17:57:58;;;;;;;14.98;10.57;;;;;;;;;;5005071;28;20057;-84
2022/04/01 18:00:24;;;;;;;17.30;11.10;;;;;;;;;;5005677;28;20150;-82
2022/04/01 18:02:52;;;;;;;14.45;9.63;;;;;;;;;;5008309;28;20026;-82
2022/04/01 18:05:51;;;;;;;17.77;10.85;;;;;;;;;;4983091;28;20121;-83
2022/04/01 18:08:40;;;;;;;14.52;8.80;;;;;;;;;;4992220;28;20033;-82
2022/04/01 18:11:08;;;;;;;13.90;9.73;;;;;;;;;;5007842;28;20030;-82
2022/04/01 18:13:35;;;;;;;22.35;12.93;;;;;;;;;;5012155;28;20034;-83
2022/04/01 18:16:04;;;;;;;12.88;8.50;;;;;;;;;;5002108;28;20022;-83
2022/04/01 18:18:30;;;;;;;10.07;6.70;;;;;;;;;;5006181;28;20062;-83
2022/04/01 18:20:57;;;;;;;15.75;9.18;;;;;;;;;;4988265;28;20026;-84
2022/04/01 18:23:22;;;;;;;18.63;11.20;;;;;;;;;;4990960;28;20053;-86
2022/04/01 18:26:03;;;;;;;19.92;13.18;;;;;;;;;;4995689;28;20026;-79
2022/04/01 18:28:52;;;;;;;19.15;12.30;;;;;;;;;;4983376;28;20419;-81
2022/04/01 18:31:27;;;;;;;19.33;12.10;;;;;;;;;;4999986;28;20014;-81
2022/04/01 18:34:02;;;;;;;21.67;12.07;;;;;;;;;;5016413;28;20084;-80